sensor_id;sensor_type;location;lat;lon;timestamp;temperature;humidity
69731;SHT31;56996;48.138;11.538;2023-02-01T00:00:55;4.83;64.10
69731;SHT31;56996;48.138;11.538;2023-02-01T00:03:22;4.86;63.97
69731;SHT31;56996;48.138;11.538;2023-02-01T00:05:56;4.85;63.90
69731;SHT31;56996;48.138;11.538;2023-02-01T00:08:26;4.84;63.92
69731;SHT31;56996;48.138;11.538;2023-02-01T00:11:00;4.86;63.71
69731;SHT31;56996;48.138;11.538;2023-02-01T00:13:32;4.86;63.61
69731;SHT31;56996;48.138;11.538;2023-02-01T00:16:08;4.87;63.43
69731;SHT31;56996;48.138;11.538;2023-02-01T00:18:44;4.91;63.35
69731;SHT31;56996;48.138;11.538;2023-02-01T00:21:13;4.89;63.31
69731;SHT31;56996;48.138;11.538;2023-02-01T00:23:43;4.93;63.28
69731;SHT31;56996;48.138;11.538;2023-02-01T00:26:14;4.94;63.23
69731;SHT31;56996;48.138;11.538;2023-02-01T00:29:13;4.98;63.20
69731;SHT31;56996;48.138;11.538;2023-02-01T00:32:10;5.00;63.36
69731;SHT31;56996;48.138;11.538;2023-02-01T00:34:37;4.97;63.67
69731;SHT31;56996;48.138;11.538;2023-02-01T00:37:04;4.98;63.89
69731;SHT31;56996;48.138;11.538;2023-02-01T00:39:31;5.01;64.01
69731;SHT31;56996;48.138;11.538;2023-02-01T00:41:59;5.02;64.32
69731;SHT31;56996;48.138;11.538;2023-02-01T00:44:28;5.01;64.59
69731;SHT31;56996;48.138;11.538;2023-02-01T00:46:59;5.01;64.76
69731;SHT31;56996;48.138;11.538;2023-02-01T00:49:27;4.98;65.21
69731;SHT31;56996;48.138;11.538;2023-02-01T00:51:54;4.94;65.50
69731;SHT31;56996;48.138;11.538;2023-02-01T00:54:21;4.92;65.93
69731;SHT31;56996;48.138;11.538;2023-02-01T00:56:48;4.92;66.09
69731;SHT31;56996;48.138;11.538;2023-02-01T00:59:14;4.90;66.34
69731;SHT31;56996;48.138;11.538;2023-02-01T01:01:41;4.82;66.92
69731;SHT31;56996;48.138;11.538;2023-02-01T01:04:08;4.74;67.67
69731;SHT31;56996;48.138;11.538;2023-02-01T01:06:35;4.70;67.81
69731;SHT31;56996;48.138;11.538;2023-02-01T01:09:03;4.64;68.21
69731;SHT31;56996;48.138;11.538;2023-02-01T01:11:34;4.57;68.25
69731;SHT31;56996;48.138;11.538;2023-02-01T01:14:05;4.53;68.51
69731;SHT31;56996;48.138;11.538;2023-02-01T01:16:34;4.47;68.76
69731;SHT31;56996;48.138;11.538;2023-02-01T01:19:02;4.47;69.07
69731;SHT31;56996;48.138;11.538;2023-02-01T01:21:29;4.45;69.05
69731;SHT31;56996;48.138;11.538;2023-02-01T01:23:57;4.43;69.33
69731;SHT31;56996;48.138;11.538;2023-02-01T01:26:25;4.41;69.27
69731;SHT31;56996;48.138;11.538;2023-02-01T01:28:55;4.43;69.29
69731;SHT31;56996;48.138;11.538;2023-02-01T01:31:23;4.43;69.48
69731;SHT31;56996;48.138;11.538;2023-02-01T01:33:52;4.42;69.53
69731;SHT31;56996;48.138;11.538;2023-02-01T01:36:21;4.44;69.65
69731;SHT31;56996;48.138;11.538;2023-02-01T01:38:49;4.46;69.66
69731;SHT31;56996;48.138;11.538;2023-02-01T01:41:25;4.45;70.07
69731;SHT31;56996;48.138;11.538;2023-02-01T01:44:02;4.43;70.31
69731;SHT31;56996;48.138;11.538;2023-02-01T01:49:05;4.46;70.64
69731;SHT31;56996;48.138;11.538;2023-02-01T01:51:53;4.45;70.83
69731;SHT31;56996;48.138;11.538;2023-02-01T01:54:29;4.42;71.19
69731;SHT31;56996;48.138;11.538;2023-02-01T01:57:18;4.35;71.60
69731;SHT31;56996;48.138;11.538;2023-02-01T01:59:53;4.33;71.73
69731;SHT31;56996;48.138;11.538;2023-02-01T02:02:43;4.32;71.91
69731;SHT31;56996;48.138;11.538;2023-02-01T02:05:13;4.29;72.14
69731;SHT31;56996;48.138;11.538;2023-02-01T02:07:43;4.24;72.22
69731;SHT31;56996;48.138;11.538;2023-02-01T02:10:14;4.22;72.55
69731;SHT31;56996;48.138;11.538;2023-02-01T02:12:42;4.18;72.81
69731;SHT31;56996;48.138;11.538;2023-02-01T02:15:13;4.12;72.93
69731;SHT31;56996;48.138;11.538;2023-02-01T02:32:37;4.02;73.50
69731;SHT31;56996;48.138;11.538;2023-02-01T02:35:41;4.02;73.59
69731;SHT31;56996;48.138;11.538;2023-02-01T02:43:37;4.07;73.53
69731;SHT31;56996;48.138;11.538;2023-02-01T02:46:37;4.09;73.39
69731;SHT31;56996;48.138;11.538;2023-02-01T02:52:16;4.09;73.41
69731;SHT31;56996;48.138;11.538;2023-02-01T02:55:06;4.11;73.49
69731;SHT31;56996;48.138;11.538;2023-02-01T02:57:39;4.12;73.46
69731;SHT31;56996;48.138;11.538;2023-02-01T03:00:28;4.14;73.32
69731;SHT31;56996;48.138;11.538;2023-02-01T03:03:18;4.13;73.33
69731;SHT31;56996;48.138;11.538;2023-02-01T03:06:03;4.13;73.24
69731;SHT31;56996;48.138;11.538;2023-02-01T03:08:32;4.14;73.23
69731;SHT31;56996;48.138;11.538;2023-02-01T03:11:01;4.16;73.13
69731;SHT31;56996;48.138;11.538;2023-02-01T03:16:24;4.19;73.05
69731;SHT31;56996;48.138;11.538;2023-02-01T03:18:57;4.18;72.95
69731;SHT31;56996;48.138;11.538;2023-02-01T03:21:32;4.19;72.89
69731;SHT31;56996;48.138;11.538;2023-02-01T03:24:09;4.19;72.80
69731;SHT31;56996;48.138;11.538;2023-02-01T03:27:05;4.22;72.70
69731;SHT31;56996;48.138;11.538;2023-02-01T03:32:15;4.27;72.47
69731;SHT31;56996;48.138;11.538;2023-02-01T03:34:43;4.27;72.41
69731;SHT31;56996;48.138;11.538;2023-02-01T03:37:12;4.26;72.35
69731;SHT31;56996;48.138;11.538;2023-02-01T03:39:54;4.28;72.27
69731;SHT31;56996;48.138;11.538;2023-02-01T03:42:28;4.31;72.16
69731;SHT31;56996;48.138;11.538;2023-02-01T03:45:04;4.33;72.09
69731;SHT31;56996;48.138;11.538;2023-02-01T03:47:41;4.35;71.98
69731;SHT31;56996;48.138;11.538;2023-02-01T03:50:14;4.36;71.81
69731;SHT31;56996;48.138;11.538;2023-02-01T03:52:51;4.37;71.76
69731;SHT31;56996;48.138;11.538;2023-02-01T03:55:21;4.36;71.73
69731;SHT31;56996;48.138;11.538;2023-02-01T03:57:51;4.37;71.71
69731;SHT31;56996;48.138;11.538;2023-02-01T04:00:31;4.38;71.64
69731;SHT31;56996;48.138;11.538;2023-02-01T04:02:58;4.36;71.68
69731;SHT31;56996;48.138;11.538;2023-02-01T04:05:25;4.36;71.61
69731;SHT31;56996;48.138;11.538;2023-02-01T04:07:57;4.37;71.52
69731;SHT31;56996;48.138;11.538;2023-02-01T04:10:25;4.39;71.45
69731;SHT31;56996;48.138;11.538;2023-02-01T04:12:52;4.39;71.40
69731;SHT31;56996;48.138;11.538;2023-02-01T04:15:18;4.38;71.52
69731;SHT31;56996;48.138;11.538;2023-02-01T04:17:45;4.37;71.41
69731;SHT31;56996;48.138;11.538;2023-02-01T04:20:12;4.36;71.31
69731;SHT31;56996;48.138;11.538;2023-02-01T04:22:39;4.36;71.26
69731;SHT31;56996;48.138;11.538;2023-02-01T04:25:05;4.39;71.17
69731;SHT31;56996;48.138;11.538;2023-02-01T04:27:34;4.40;71.12
69731;SHT31;56996;48.138;11.538;2023-02-01T04:30:02;4.41;71.03
69731;SHT31;56996;48.138;11.538;2023-02-01T04:32:30;4.39;70.98
69731;SHT31;56996;48.138;11.538;2023-02-01T04:34:57;4.38;70.95
69731;SHT31;56996;48.138;11.538;2023-02-01T04:37:23;4.39;70.86
69731;SHT31;56996;48.138;11.538;2023-02-01T04:39:50;4.39;70.75
69731;SHT31;56996;48.138;11.538;2023-02-01T04:42:17;4.37;70.72
69731;SHT31;56996;48.138;11.538;2023-02-01T04:44:43;4.37;70.81
69731;SHT31;56996;48.138;11.538;2023-02-01T04:47:10;4.36;70.73
69731;SHT31;56996;48.138;11.538;2023-02-01T04:49:36;4.36;70.67
69731;SHT31;56996;48.138;11.538;2023-02-01T04:52:03;4.36;70.59
69731;SHT31;56996;48.138;11.538;2023-02-01T04:54:30;4.35;70.50
69731;SHT31;56996;48.138;11.538;2023-02-01T04:56:57;4.36;70.53
69731;SHT31;56996;48.138;11.538;2023-02-01T04:59:23;4.34;70.53
69731;SHT31;56996;48.138;11.538;2023-02-01T05:01:50;4.34;70.45
69731;SHT31;56996;48.138;11.538;2023-02-01T05:04:17;4.36;70.34
69731;SHT31;56996;48.138;11.538;2023-02-01T05:06:46;4.35;70.22
69731;SHT31;56996;48.138;11.538;2023-02-01T05:09:13;4.36;70.20
69731;SHT31;56996;48.138;11.538;2023-02-01T05:11:41;4.36;70.19
69731;SHT31;56996;48.138;11.538;2023-02-01T05:14:26;4.34;70.10
69731;SHT31;56996;48.138;11.538;2023-02-01T05:16:53;4.34;70.14
69731;SHT31;56996;48.138;11.538;2023-02-01T05:19:20;4.36;70.13
69731;SHT31;56996;48.138;11.538;2023-02-01T05:21:46;4.37;70.04
69731;SHT31;56996;48.138;11.538;2023-02-01T05:24:13;4.37;69.97
69731;SHT31;56996;48.138;11.538;2023-02-01T05:26:42;4.38;69.95
69731;SHT31;56996;48.138;11.538;2023-02-01T05:29:09;4.39;69.89
69731;SHT31;56996;48.138;11.538;2023-02-01T05:31:37;4.39;69.80
69731;SHT31;56996;48.138;11.538;2023-02-01T05:34:04;4.40;69.83
69731;SHT31;56996;48.138;11.538;2023-02-01T05:36:32;4.40;69.83
69731;SHT31;56996;48.138;11.538;2023-02-01T05:38:59;4.40;69.86
69731;SHT31;56996;48.138;11.538;2023-02-01T05:41:26;4.41;69.78
69731;SHT31;56996;48.138;11.538;2023-02-01T05:43:52;4.43;69.74
69731;SHT31;56996;48.138;11.538;2023-02-01T05:46:19;4.44;69.60
69731;SHT31;56996;48.138;11.538;2023-02-01T05:48:46;4.44;69.63
69731;SHT31;56996;48.138;11.538;2023-02-01T05:51:12;4.45;69.60
69731;SHT31;56996;48.138;11.538;2023-02-01T05:53:39;4.45;69.64
69731;SHT31;56996;48.138;11.538;2023-02-01T05:56:06;4.45;69.55
69731;SHT31;56996;48.138;11.538;2023-02-01T05:58:33;4.44;69.53
69731;SHT31;56996;48.138;11.538;2023-02-01T06:01:00;4.43;69.59
69731;SHT31;56996;48.138;11.538;2023-02-01T06:03:29;4.43;69.64
69731;SHT31;56996;48.138;11.538;2023-02-01T06:05:56;4.45;69.58
69731;SHT31;56996;48.138;11.538;2023-02-01T06:08:23;4.45;69.65
69731;SHT31;56996;48.138;11.538;2023-02-01T06:10:57;4.45;69.78
69731;SHT31;56996;48.138;11.538;2023-02-01T06:13:29;4.47;69.73
69731;SHT31;56996;48.138;11.538;2023-02-01T06:15:59;4.46;69.75
69731;SHT31;56996;48.138;11.538;2023-02-01T06:18:26;4.49;69.53
69731;SHT31;56996;48.138;11.538;2023-02-01T06:20:56;4.49;69.39
69731;SHT31;56996;48.138;11.538;2023-02-01T06:23:27;4.51;69.42
69731;SHT31;56996;48.138;11.538;2023-02-01T06:25:58;4.52;69.35
69731;SHT31;56996;48.138;11.538;2023-02-01T06:28:29;4.52;69.42
69731;SHT31;56996;48.138;11.538;2023-02-01T06:30:57;4.51;69.52
69731;SHT31;56996;48.138;11.538;2023-02-01T06:33:25;4.52;69.50
69731;SHT31;56996;48.138;11.538;2023-02-01T06:35:58;4.50;69.57
69731;SHT31;56996;48.138;11.538;2023-02-01T06:38:27;4.52;69.43
69731;SHT31;56996;48.138;11.538;2023-02-01T06:40:54;4.51;69.34
69731;SHT31;56996;48.138;11.538;2023-02-01T06:43:23;4.50;69.38
69731;SHT31;56996;48.138;11.538;2023-02-01T06:45:52;4.51;69.41
69731;SHT31;56996;48.138;11.538;2023-02-01T06:48:19;4.52;69.39
69731;SHT31;56996;48.138;11.538;2023-02-01T06:50:46;4.55;69.31
69731;SHT31;56996;48.138;11.538;2023-02-01T06:53:12;4.55;69.22
69731;SHT31;56996;48.138;11.538;2023-02-01T06:55:39;4.57;69.25
69731;SHT31;56996;48.138;11.538;2023-02-01T06:58:05;4.58;69.19
69731;SHT31;56996;48.138;11.538;2023-02-01T07:00:32;4.58;69.18
69731;SHT31;56996;48.138;11.538;2023-02-01T07:02:59;4.58;69.11
69731;SHT31;56996;48.138;11.538;2023-02-01T07:05:26;4.58;69.10
69731;SHT31;56996;48.138;11.538;2023-02-01T07:07:53;4.59;69.10
69731;SHT31;56996;48.138;11.538;2023-02-01T07:10:19;4.59;69.12
69731;SHT31;56996;48.138;11.538;2023-02-01T07:12:46;4.57;69.13
69731;SHT31;56996;48.138;11.538;2023-02-01T07:15:13;4.58;69.17
69731;SHT31;56996;48.138;11.538;2023-02-01T07:17:40;4.60;69.18
69731;SHT31;56996;48.138;11.538;2023-02-01T07:20:07;4.63;69.14
69731;SHT31;56996;48.138;11.538;2023-02-01T07:22:34;4.65;69.12
69731;SHT31;56996;48.138;11.538;2023-02-01T07:25:01;4.65;69.10
69731;SHT31;56996;48.138;11.538;2023-02-01T07:27:33;4.67;69.03
69731;SHT31;56996;48.138;11.538;2023-02-01T07:30:01;4.69;68.83
69731;SHT31;56996;48.138;11.538;2023-02-01T07:32:30;4.72;68.67
69731;SHT31;56996;48.138;11.538;2023-02-01T07:34:57;4.76;68.71
69731;SHT31;56996;48.138;11.538;2023-02-01T07:37:24;4.79;68.54
69731;SHT31;56996;48.138;11.538;2023-02-01T07:39:51;4.83;68.47
69731;SHT31;56996;48.138;11.538;2023-02-01T07:42:18;4.87;68.39
69731;SHT31;56996;48.138;11.538;2023-02-01T07:44:45;4.89;68.19
69731;SHT31;56996;48.138;11.538;2023-02-01T07:47:11;4.90;68.04
69731;SHT31;56996;48.138;11.538;2023-02-01T07:49:38;4.92;67.98
69731;SHT31;56996;48.138;11.538;2023-02-01T07:52:05;4.95;67.85
69731;SHT31;56996;48.138;11.538;2023-02-01T07:54:31;4.96;67.75
69731;SHT31;56996;48.138;11.538;2023-02-01T07:56:58;4.98;67.58
69731;SHT31;56996;48.138;11.538;2023-02-01T07:59:25;5.01;67.53
69731;SHT31;56996;48.138;11.538;2023-02-01T08:01:51;5.04;67.41
69731;SHT31;56996;48.138;11.538;2023-02-01T08:04:18;5.07;67.18
69731;SHT31;56996;48.138;11.538;2023-02-01T08:06:45;5.10;66.97
69731;SHT31;56996;48.138;11.538;2023-02-01T08:09:11;5.09;66.97
69731;SHT31;56996;48.138;11.538;2023-02-01T08:11:38;5.12;66.79
69731;SHT31;56996;48.138;11.538;2023-02-01T08:14:05;5.16;66.67
69731;SHT31;56996;48.138;11.538;2023-02-01T08:16:33;5.19;66.41
69731;SHT31;56996;48.138;11.538;2023-02-01T08:19:01;5.20;66.26
69731;SHT31;56996;48.138;11.538;2023-02-01T08:21:28;5.22;66.23
69731;SHT31;56996;48.138;11.538;2023-02-01T08:24:08;5.25;65.93
69731;SHT31;56996;48.138;11.538;2023-02-01T08:26:36;5.27;65.84
69731;SHT31;56996;48.138;11.538;2023-02-01T08:29:04;5.29;65.35
69731;SHT31;56996;48.138;11.538;2023-02-01T08:31:33;5.32;65.43
69731;SHT31;56996;48.138;11.538;2023-02-01T08:34:01;5.35;65.19
69731;SHT31;56996;48.138;11.538;2023-02-01T08:36:31;5.35;65.06
69731;SHT31;56996;48.138;11.538;2023-02-01T08:38:59;5.37;65.00
69731;SHT31;56996;48.138;11.538;2023-02-01T08:41:28;5.42;64.88
69731;SHT31;56996;48.138;11.538;2023-02-01T08:43:56;5.48;64.41
69731;SHT31;56996;48.138;11.538;2023-02-01T08:46:24;5.52;64.39
69731;SHT31;56996;48.138;11.538;2023-02-01T08:48:51;5.59;64.11
69731;SHT31;56996;48.138;11.538;2023-02-01T08:51:20;5.67;63.95
69731;SHT31;56996;48.138;11.538;2023-02-01T08:53:48;5.74;63.38
69731;SHT31;56996;48.138;11.538;2023-02-01T08:56:16;5.77;63.37
69731;SHT31;56996;48.138;11.538;2023-02-01T08:58:44;5.81;62.91
69731;SHT31;56996;48.138;11.538;2023-02-01T09:01:11;5.83;62.97
69731;SHT31;56996;48.138;11.538;2023-02-01T09:03:41;5.87;62.75
69731;SHT31;56996;48.138;11.538;2023-02-01T09:06:09;5.91;62.49
69731;SHT31;56996;48.138;11.538;2023-02-01T09:08:39;5.92;62.46
69731;SHT31;56996;48.138;11.538;2023-02-01T09:11:07;5.98;62.33
69731;SHT31;56996;48.138;11.538;2023-02-01T09:13:38;6.01;62.12
69731;SHT31;56996;48.138;11.538;2023-02-01T09:16:05;6.05;62.02
69731;SHT31;56996;48.138;11.538;2023-02-01T09:18:33;6.09;61.73
69731;SHT31;56996;48.138;11.538;2023-02-01T09:21:04;6.11;61.58
69731;SHT31;56996;48.138;11.538;2023-02-01T09:23:34;6.17;61.69
69731;SHT31;56996;48.138;11.538;2023-02-01T09:26:02;6.23;61.52
69731;SHT31;56996;48.138;11.538;2023-02-01T09:28:31;6.25;61.51
69731;SHT31;56996;48.138;11.538;2023-02-01T09:30:58;6.28;61.48
69731;SHT31;56996;48.138;11.538;2023-02-01T09:33:26;6.29;61.24
69731;SHT31;56996;48.138;11.538;2023-02-01T09:35:59;6.34;61.29
69731;SHT31;56996;48.138;11.538;2023-02-01T09:38:29;6.39;61.20
69731;SHT31;56996;48.138;11.538;2023-02-01T09:40:58;6.48;61.14
69731;SHT31;56996;48.138;11.538;2023-02-01T09:49:01;6.62;60.60
69731;SHT31;56996;48.138;11.538;2023-02-01T09:51:41;6.70;60.49
69731;SHT31;56996;48.138;11.538;2023-02-01T09:54:17;6.74;60.16
69731;SHT31;56996;48.138;11.538;2023-02-01T09:56:56;6.77;59.98
69731;SHT31;56996;48.138;11.538;2023-02-01T09:59:43;6.79;60.09
69731;SHT31;56996;48.138;11.538;2023-02-01T10:02:17;6.83;60.28
69731;SHT31;56996;48.138;11.538;2023-02-01T10:04:54;6.85;60.20
69731;SHT31;56996;48.138;11.538;2023-02-01T10:07:31;6.85;60.18
69731;SHT31;56996;48.138;11.538;2023-02-01T10:26:45;6.82;59.97
69731;SHT31;56996;48.138;11.538;2023-02-01T10:29:25;6.88;60.10
69731;SHT31;56996;48.138;11.538;2023-02-01T10:31:59;6.89;59.71
69731;SHT31;56996;48.138;11.538;2023-02-01T10:34:29;6.88;59.81
69731;SHT31;56996;48.138;11.538;2023-02-01T10:37:01;6.88;59.87
69731;SHT31;56996;48.138;11.538;2023-02-01T10:39:56;6.84;59.73
69731;SHT31;56996;48.138;11.538;2023-02-01T10:42:28;6.84;59.91
69731;SHT31;56996;48.138;11.538;2023-02-01T10:44:58;6.83;59.99
69731;SHT31;56996;48.138;11.538;2023-02-01T10:47:28;6.82;60.07
69731;SHT31;56996;48.138;11.538;2023-02-01T10:49:58;6.84;60.01
69731;SHT31;56996;48.138;11.538;2023-02-01T10:52:43;6.84;60.09
69731;SHT31;56996;48.138;11.538;2023-02-01T10:58:10;6.79;60.06
69731;SHT31;56996;48.138;11.538;2023-02-01T11:00:44;6.78;60.29
69731;SHT31;56996;48.138;11.538;2023-02-01T11:03:30;6.80;60.48
69731;SHT31;56996;48.138;11.538;2023-02-01T11:06:10;6.78;60.10
69731;SHT31;56996;48.138;11.538;2023-02-01T11:08:55;6.70;60.53
69731;SHT31;56996;48.138;11.538;2023-02-01T11:11:27;6.72;60.43
69731;SHT31;56996;48.138;11.538;2023-02-01T11:14:13;6.72;60.72
69731;SHT31;56996;48.138;11.538;2023-02-01T11:19:46;6.78;60.76
69731;SHT31;56996;48.138;11.538;2023-02-01T11:22:24;6.85;60.65
69731;SHT31;56996;48.138;11.538;2023-02-01T11:24:55;6.93;60.38
69731;SHT31;56996;48.138;11.538;2023-02-01T11:27:24;6.95;60.25
69731;SHT31;56996;48.138;11.538;2023-02-01T11:29:55;6.95;60.27
69731;SHT31;56996;48.138;11.538;2023-02-01T11:32:26;6.90;60.34
69731;SHT31;56996;48.138;11.538;2023-02-01T11:35:02;6.86;60.48
69731;SHT31;56996;48.138;11.538;2023-02-01T11:37:33;6.82;60.53
69731;SHT31;56996;48.138;11.538;2023-02-01T11:42:52;6.72;60.39
69731;SHT31;56996;48.138;11.538;2023-02-01T11:47:56;6.63;60.64
69731;SHT31;56996;48.138;11.538;2023-02-01T12:08:14;6.56;60.96
69731;SHT31;56996;48.138;11.538;2023-02-01T12:13:52;6.63;60.58
69731;SHT31;56996;48.138;11.538;2023-02-01T12:22:34;6.58;60.81
69731;SHT31;56996;48.138;11.538;2023-02-01T12:31:12;6.47;60.81
69731;SHT31;56996;48.138;11.538;2023-02-01T12:40:20;6.31;61.00
69731;SHT31;56996;48.138;11.538;2023-02-01T12:45:36;6.31;61.21
69731;SHT31;56996;48.138;11.538;2023-02-01T12:48:36;6.30;61.17
69731;SHT31;56996;48.138;11.538;2023-02-01T12:51:22;6.31;61.12
69731;SHT31;56996;48.138;11.538;2023-02-01T12:53:57;6.29;61.01
69731;SHT31;56996;48.138;11.538;2023-02-01T12:59:33;6.27;60.59
69731;SHT31;56996;48.138;11.538;2023-02-01T13:05:20;6.28;60.04
69731;SHT31;56996;48.138;11.538;2023-02-01T13:10:33;6.25;59.94
69731;SHT31;56996;48.138;11.538;2023-02-01T13:15:46;6.27;60.05
69731;SHT31;56996;48.138;11.538;2023-02-01T13:18:22;6.33;60.01
69731;SHT31;56996;48.138;11.538;2023-02-01T13:20:58;6.31;59.87
69731;SHT31;56996;48.138;11.538;2023-02-01T13:23:36;6.33;60.44
69731;SHT31;56996;48.138;11.538;2023-02-01T13:26:06;6.36;60.33
69731;SHT31;56996;48.138;11.538;2023-02-01T13:28:50;6.37;60.46
69731;SHT31;56996;48.138;11.538;2023-02-01T13:41:04;6.48;61.08
69731;SHT31;56996;48.138;11.538;2023-02-01T13:44:01;6.50;61.24
69731;SHT31;56996;48.138;11.538;2023-02-01T13:46:41;6.45;61.43
69731;SHT31;56996;48.138;11.538;2023-02-01T13:49:21;6.46;61.54
69731;SHT31;56996;48.138;11.538;2023-02-01T13:51:55;6.49;61.64
69731;SHT31;56996;48.138;11.538;2023-02-01T13:54:28;6.52;61.70
69731;SHT31;56996;48.138;11.538;2023-02-01T13:57:03;6.52;61.70
69731;SHT31;56996;48.138;11.538;2023-02-01T13:59:52;6.48;61.87
69731;SHT31;56996;48.138;11.538;2023-02-01T14:05:09;6.45;62.05
69731;SHT31;56996;48.138;11.538;2023-02-01T14:08:02;6.44;62.13
69731;SHT31;56996;48.138;11.538;2023-02-01T14:13:37;6.40;62.12
69731;SHT31;56996;48.138;11.538;2023-02-01T14:16:17;6.35;62.12
69731;SHT31;56996;48.138;11.538;2023-02-01T14:21:29;6.31;62.02
69731;SHT31;56996;48.138;11.538;2023-02-01T14:24:04;6.27;62.00
69731;SHT31;56996;48.138;11.538;2023-02-01T14:26:49;6.22;61.96
69731;SHT31;56996;48.138;11.538;2023-02-01T14:32:17;6.22;61.62
69731;SHT31;56996;48.138;11.538;2023-02-01T14:47:53;6.09;61.20
69731;SHT31;56996;48.138;11.538;2023-02-01T14:58:51;6.11;60.88
69731;SHT31;56996;48.138;11.538;2023-02-01T15:01:28;6.09;61.02
69731;SHT31;56996;48.138;11.538;2023-02-01T15:06:49;6.10;61.07
69731;SHT31;56996;48.138;11.538;2023-02-01T15:09:33;6.07;60.97
69731;SHT31;56996;48.138;11.538;2023-02-01T15:14:47;6.08;61.33
69731;SHT31;56996;48.138;11.538;2023-02-01T15:17:37;6.08;61.41
69731;SHT31;56996;48.138;11.538;2023-02-01T15:20:21;6.08;61.71
69731;SHT31;56996;48.138;11.538;2023-02-01T15:22:57;6.07;61.64
69731;SHT31;56996;48.138;11.538;2023-02-01T15:25:28;6.08;61.79
69731;SHT31;56996;48.138;11.538;2023-02-01T15:28:00;6.06;61.83
69731;SHT31;56996;48.138;11.538;2023-02-01T15:30:28;6.02;62.13
69731;SHT31;56996;48.138;11.538;2023-02-01T15:35:41;6.00;62.40
69731;SHT31;56996;48.138;11.538;2023-02-01T15:43:35;5.79;63.27
69731;SHT31;56996;48.138;11.538;2023-02-01T15:46:16;5.75;63.51
69731;SHT31;56996;48.138;11.538;2023-02-01T15:48:50;5.71;63.77
69731;SHT31;56996;48.138;11.538;2023-02-01T15:51:20;5.66;64.07
69731;SHT31;56996;48.138;11.538;2023-02-01T15:53:53;5.63;64.31
69731;SHT31;56996;48.138;11.538;2023-02-01T15:56:29;5.60;64.39
69731;SHT31;56996;48.138;11.538;2023-02-01T15:59:06;5.54;64.56
69731;SHT31;56996;48.138;11.538;2023-02-01T16:01:42;5.49;64.66
69731;SHT31;56996;48.138;11.538;2023-02-01T16:04:22;5.50;64.61
69731;SHT31;56996;48.138;11.538;2023-02-01T16:09:24;5.46;64.52
69731;SHT31;56996;48.138;11.538;2023-02-01T16:12:20;5.39;64.68
69731;SHT31;56996;48.138;11.538;2023-02-01T16:15:12;5.33;64.41
69731;SHT31;56996;48.138;11.538;2023-02-01T16:17:39;5.29;64.03
69731;SHT31;56996;48.138;11.538;2023-02-01T16:20:06;5.27;64.05
69731;SHT31;56996;48.138;11.538;2023-02-01T16:22:33;5.28;64.00
69731;SHT31;56996;48.138;11.538;2023-02-01T16:25:00;5.29;63.69
69731;SHT31;56996;48.138;11.538;2023-02-01T16:27:28;5.28;63.75
69731;SHT31;56996;48.138;11.538;2023-02-01T16:29:54;5.32;63.64
69731;SHT31;56996;48.138;11.538;2023-02-01T16:32:23;5.31;63.39
69731;SHT31;56996;48.138;11.538;2023-02-01T16:34:50;5.32;63.32
69731;SHT31;56996;48.138;11.538;2023-02-01T16:37:19;5.31;63.20
69731;SHT31;56996;48.138;11.538;2023-02-01T16:39:49;5.32;63.13
69731;SHT31;56996;48.138;11.538;2023-02-01T16:42:16;5.31;63.06
69731;SHT31;56996;48.138;11.538;2023-02-01T16:44:43;5.30;63.11
69731;SHT31;56996;48.138;11.538;2023-02-01T16:47:20;5.32;63.15
69731;SHT31;56996;48.138;11.538;2023-02-01T16:49:49;5.33;63.00
69731;SHT31;56996;48.138;11.538;2023-02-01T16:52:20;5.31;63.02
69731;SHT31;56996;48.138;11.538;2023-02-01T16:54:50;5.28;63.02
69731;SHT31;56996;48.138;11.538;2023-02-01T16:57:18;5.29;63.06
69731;SHT31;56996;48.138;11.538;2023-02-01T16:59:48;5.26;63.08
69731;SHT31;56996;48.138;11.538;2023-02-01T17:02:16;5.28;62.89
69731;SHT31;56996;48.138;11.538;2023-02-01T17:04:46;5.30;62.90
69731;SHT31;56996;48.138;11.538;2023-02-01T17:07:15;5.32;62.47
69731;SHT31;56996;48.138;11.538;2023-02-01T17:09:45;5.32;62.40
69731;SHT31;56996;48.138;11.538;2023-02-01T17:14:52;5.33;61.98
69731;SHT31;56996;48.138;11.538;2023-02-01T17:17:20;5.34;61.89
69731;SHT31;56996;48.138;11.538;2023-02-01T17:20:02;5.35;61.60
69731;SHT31;56996;48.138;11.538;2023-02-01T17:22:30;5.36;61.35
69731;SHT31;56996;48.138;11.538;2023-02-01T17:24:57;5.38;61.18
69731;SHT31;56996;48.138;11.538;2023-02-01T17:27:23;5.41;61.15
69731;SHT31;56996;48.138;11.538;2023-02-01T17:29:50;5.42;61.11
69731;SHT31;56996;48.138;11.538;2023-02-01T17:32:20;5.44;60.97
69731;SHT31;56996;48.138;11.538;2023-02-01T17:34:50;5.41;60.85
69731;SHT31;56996;48.138;11.538;2023-02-01T17:37:24;5.43;60.90
69731;SHT31;56996;48.138;11.538;2023-02-01T17:39:55;5.41;60.65
69731;SHT31;56996;48.138;11.538;2023-02-01T17:42:25;5.41;60.59
69731;SHT31;56996;48.138;11.538;2023-02-01T17:44:56;5.42;60.52
69731;SHT31;56996;48.138;11.538;2023-02-01T17:47:27;5.42;60.49
69731;SHT31;56996;48.138;11.538;2023-02-01T17:49:54;5.43;60.37
69731;SHT31;56996;48.138;11.538;2023-02-01T17:52:23;5.42;60.38
69731;SHT31;56996;48.138;11.538;2023-02-01T17:54:51;5.42;60.25
69731;SHT31;56996;48.138;11.538;2023-02-01T17:57:19;5.45;60.27
69731;SHT31;56996;48.138;11.538;2023-02-01T17:59:46;5.46;60.02
69731;SHT31;56996;48.138;11.538;2023-02-01T18:02:23;5.46;60.05
69731;SHT31;56996;48.138;11.538;2023-02-01T18:04:50;5.47;59.96
69731;SHT31;56996;48.138;11.538;2023-02-01T18:07:17;5.49;59.89
69731;SHT31;56996;48.138;11.538;2023-02-01T18:09:44;5.51;59.65
69731;SHT31;56996;48.138;11.538;2023-02-01T18:12:15;5.52;59.42
69731;SHT31;56996;48.138;11.538;2023-02-01T18:14:47;5.51;59.25
69731;SHT31;56996;48.138;11.538;2023-02-01T18:17:14;5.50;59.34
69731;SHT31;56996;48.138;11.538;2023-02-01T18:19:41;5.50;59.34
69731;SHT31;56996;48.138;11.538;2023-02-01T18:22:11;5.51;59.39
69731;SHT31;56996;48.138;11.538;2023-02-01T18:24:43;5.53;59.33
69731;SHT31;56996;48.138;11.538;2023-02-01T18:27:09;5.55;59.28
69731;SHT31;56996;48.138;11.538;2023-02-01T18:29:36;5.54;59.17
69731;SHT31;56996;48.138;11.538;2023-02-01T18:32:03;5.54;59.38
69731;SHT31;56996;48.138;11.538;2023-02-01T18:34:30;5.54;59.29
69731;SHT31;56996;48.138;11.538;2023-02-01T18:36:56;5.56;59.26
69731;SHT31;56996;48.138;11.538;2023-02-01T18:39:23;5.57;58.89
69731;SHT31;56996;48.138;11.538;2023-02-01T18:41:49;5.58;58.99
69731;SHT31;56996;48.138;11.538;2023-02-01T18:44:17;5.59;58.68
69731;SHT31;56996;48.138;11.538;2023-02-01T18:46:43;5.56;58.70
69731;SHT31;56996;48.138;11.538;2023-02-01T18:49:10;5.57;58.67
69731;SHT31;56996;48.138;11.538;2023-02-01T18:51:39;5.57;58.80
69731;SHT31;56996;48.138;11.538;2023-02-01T18:54:08;5.57;58.60
69731;SHT31;56996;48.138;11.538;2023-02-01T18:56:37;5.56;58.62